Time;durP1;ratioP1;P1;durP2;ratioP2;P2;SDS_P1;SDS_P2;PMS_P1;PMS_P2;Temp;Humidity;BMP_temperature;BMP_pressure;BME280_temperature;BME280_humidity;BME280_pressure;Samples;Min_cycle;Max_cycle;Signal;HPM_P1;HPM_P2
2021/03/03 00:00:42;;;;;;;18.97;6.00;;;;;;;1.15;80.26;100356.80;125498;1108;28517;-69
2021/03/03 00:03:10;;;;;;;11.07;5.37;;;;;;;1.14;80.34;100368.55;125667;1109;23238;-68
2021/03/03 00:05:38;;;;;;;13.23;6.37;;;;;;;1.13;79.89;100366.88;125618;1109;23006;-69
2021/03/03 00:08:06;;;;;;;13.73;5.93;;;;;;;1.13;80.47;100369.56;125549;1109;23086;-68
2021/03/03 00:10:34;;;;;;;14.77;5.93;;;;;;;1.13;80.33;100369.56;125550;1109;23220;-70
2021/03/03 00:13:03;;;;;;;21.55;6.85;;;;;;;1.12;80.49;100365.20;125478;1108;23069;-69
2021/03/03 00:15:30;;;;;;;13.40;5.90;;;;;;;1.11;80.02;100371.58;125557;1108;23167;-68
2021/03/03 00:17:58;;;;;;;12.80;6.60;;;;;;;1.11;81.05;100372.41;125612;1109;23032;-68
2021/03/03 00:20:25;;;;;;;14.50;7.30;;;;;;;1.08;80.37;100372.77;125532;1107;26121;-68
2021/03/03 00:22:53;;;;;;;14.20;6.63;;;;;;;1.05;80.72;100373.94;125632;1108;26581;-68
2021/03/03 00:25:20;;;;;;;13.63;7.27;;;;;;;1.03;81.40;100381.33;125575;1107;24287;-65
2021/03/03 00:27:47;;;;;;;22.60;7.27;;;;;;;1.01;80.08;100386.03;125633;1108;23347;-66
2021/03/03 00:30:16;;;;;;;18.35;7.00;;;;;;;1.00;79.92;100378.19;125520;1109;23029;-66
2021/03/03 00:32:43;;;;;;;25.97;8.57;;;;;;;0.96;80.48;100388.42;125547;1109;23086;-66
2021/03/03 00:35:11;;;;;;;11.50;6.10;;;;;;;0.97;80.95;100383.89;125593;1107;27617;-67
2021/03/03 00:37:39;;;;;;;10.47;6.10;;;;;;;0.95;80.81;100384.06;125565;1107;23059;-66
2021/03/03 00:40:09;;;;;;;14.35;6.50;;;;;;;0.93;80.70;100367.30;125580;1108;23410;-67
2021/03/03 00:42:37;;;;;;;10.65;5.60;;;;;;;0.92;80.42;100372.84;128281;1107;22878;-68
2021/03/03 00:45:07;;;;;;;15.30;6.10;;;;;;;0.91;81.30;100363.95;128325;1108;22812;-68
2021/03/03 00:47:34;;;;;;;14.00;5.25;;;;;;;0.91;81.09;100377.36;128276;1107;22895;-68
2021/03/03 00:52:43;;;;;;;10.43;5.57;;;;;;;0.90;80.10;100381.05;124371;1112;25539;-64
2021/03/03 00:55:11;;;;;;;10.60;5.10;;;;;;;0.91;81.17;100387.26;125350;1112;23838;-66
2021/03/03 00:57:40;;;;;;;11.55;5.75;;;;;;;0.88;80.56;100383.08;125196;1112;22990;-65
2021/03/03 01:00:10;;;;;;;13.05;6.00;;;;;;;0.85;80.63;100386.13;125259;1111;23046;-65
2021/03/03 01:02:38;;;;;;;16.75;5.95;;;;;;;0.84;81.64;100386.30;128151;1111;22860;-66
2021/03/03 01:05:07;;;;;;;9.65;5.95;;;;;;;0.83;80.65;100388.14;128289;1111;23531;-67
2021/03/03 01:07:38;;;;;;;15.45;6.10;;;;;;;0.81;81.10;100387.48;125204;1111;23654;-66
2021/03/03 01:10:06;;;;;;;14.05;5.70;;;;;;;0.81;81.21;100392.00;125229;1111;23168;-66
2021/03/03 01:12:34;;;;;;;15.50;5.35;;;;;;;0.80;80.69;100391.17;128187;1111;22911;-66
2021/03/03 01:15:05;;;;;;;13.35;6.25;;;;;;;0.78;80.59;100392.34;128295;1111;22903;-66
2021/03/03 01:17:34;;;;;;;14.50;6.07;;;;;;;0.79;80.81;100397.54;128187;1112;23607;-66
2021/03/03 01:20:01;;;;;;;13.97;6.13;;;;;;;0.81;80.85;100398.20;128295;1111;23058;-66
2021/03/03 01:22:29;;;;;;;11.15;5.20;;;;;;;0.83;81.82;100400.72;128263;1111;22854;-66
2021/03/03 01:24:56;;;;;;;11.40;5.77;;;;;;;0.84;80.58;100408.59;128236;1111;22799;-67
2021/03/03 01:27:23;;;;;;;13.00;5.70;;;;;;;0.82;80.71;100410.61;128314;1111;23435;-67
2021/03/03 01:29:51;;;;;;;13.03;6.63;;;;;;;0.81;80.96;100400.89;128188;1111;22840;-67
2021/03/03 01:32:18;;;;;;;22.00;8.40;;;;;;;0.76;81.57;100399.72;128305;1111;22890;-66
2021/03/03 01:34:46;;;;;;;13.80;6.30;;;;;;;0.74;81.71;100402.58;128211;1111;23845;-67
2021/03/03 01:37:14;;;;;;;22.63;6.70;;;;;;;0.73;81.19;100411.62;128360;1111;22897;-69
2021/03/03 01:39:42;;;;;;;18.90;7.30;;;;;;;0.74;81.54;100418.67;128263;1112;22874;-70
2021/03/03 01:42:09;;;;;;;22.80;6.95;;;;;;;0.73;81.42;100425.03;128333;1111;23736;-70
2021/03/03 01:44:36;;;;;;;19.20;6.55;;;;;;;0.73;81.46;100424.20;128241;1111;23672;-70
2021/03/03 01:47:04;;;;;;;20.33;6.67;;;;;;;0.69;80.99;100421.05;128296;1111;23026;-70
2021/03/03 01:49:31;;;;;;;19.60;7.13;;;;;;;0.70;80.89;100420.88;128230;1112;22923;-71
2021/03/03 01:51:59;;;;;;;15.30;6.17;;;;;;;0.70;81.14;100422.73;128260;1111;23469;-70
2021/03/03 01:54:26;;;;;;;31.83;7.10;;;;;;;0.67;81.37;100426.58;128259;1111;22907;-70
2021/03/03 01:56:53;;;;;;;11.20;5.50;;;;;;;0.65;81.63;100412.50;128362;1111;23038;-70
2021/03/03 01:59:21;;;;;;;13.83;6.20;;;;;;;0.66;81.98;100424.91;128236;1112;22882;-69
2021/03/03 02:01:48;;;;;;;14.97;6.30;;;;;;;0.67;80.81;100415.02;128332;1111;23485;-70
2021/03/03 02:04:16;;;;;;;22.80;8.27;;;;;;;0.64;81.97;100420.72;128199;1112;22882;-69
2021/03/03 02:06:45;;;;;;;19.90;8.85;;;;;;;0.66;80.85;100429.43;126302;1112;23078;-65
2021/03/03 02:09:35;;;;;;;17.50;7.60;;;;;;;0.64;80.88;100423.40;125126;1112;23068;-65
2021/03/03 02:12:23;;;;;;;18.70;7.20;;;;;;;0.64;81.06;100432.28;125224;1111;23129;-66
2021/03/03 02:14:53;;;;;;;20.32;6.78;;;;;;;0.58;80.96;100424.08;125181;1111;23050;-65
2021/03/03 02:17:21;;;;;;;21.33;8.13;;;;;;;0.53;80.74;100429.13;125323;1112;26498;-66
2021/03/03 02:19:48;;;;;;;18.70;6.20;;;;;;;0.52;81.87;100430.14;125117;1112;23559;-67
2021/03/03 02:22:20;;;;;;;19.20;8.15;;;;;;;0.48;81.34;100439.52;125140;1111;23107;-66
2021/03/03 02:24:54;;;;;;;28.67;7.37;;;;;;;0.42;81.45;100441.06;125209;1111;23092;-66
2021/03/03 02:27:22;;;;;;;21.23;7.63;;;;;;;0.40;81.56;100452.95;125242;1109;23061;-66
2021/03/03 02:29:50;;;;;;;26.93;8.63;;;;;;;0.37;82.17;100443.41;125567;1108;23879;-66
2021/03/03 02:32:18;;;;;;;31.97;6.97;;;;;;;0.37;81.54;100453.28;125314;1109;23115;-67
2021/03/03 02:34:48;;;;;;;27.53;7.10;;;;;;;0.37;82.19;100458.64;125550;1108;23239;-66
2021/03/03 02:37:16;;;;;;;19.43;6.03;;;;;;;0.37;82.13;100467.52;125385;1109;23036;-68
2021/03/03 02:39:44;;;;;;;25.45;6.90;;;;;;;0.35;81.56;100465.01;125306;1109;23132;-67
2021/03/03 02:42:12;;;;;;;22.63;6.60;;;;;;;0.33;81.98;100467.02;125221;1108;23071;-68
2021/03/03 02:44:40;;;;;;;12.60;5.20;;;;;;;0.33;81.77;100472.38;125383;1109;23218;-67
2021/03/03 02:47:07;;;;;;;13.23;5.77;;;;;;;0.34;81.49;100471.37;125337;1109;23430;-68
2021/03/03 02:49:49;;;;;;;15.17;5.77;;;;;;;0.30;82.02;100478.06;125397;1109;23057;-68
2021/03/03 02:52:17;;;;;;;13.03;5.80;;;;;;;0.29;81.75;100479.07;125268;1109;23056;-68
2021/03/03 02:54:44;;;;;;;16.20;6.63;;;;;;;0.24;81.43;100476.08;125574;1108;23115;-68
2021/03/03 02:57:12;;;;;;;22.77;7.50;;;;;;;0.24;82.22;100485.96;125591;1109;26530;-67
2021/03/03 02:59:43;;;;;;;19.20;7.40;;;;;;;0.23;81.68;100490.48;125563;1108;23237;-67
2021/03/03 03:02:13;;;;;;;34.73;8.37;;;;;;;0.25;81.20;100484.95;128263;1109;22885;-68
2021/03/03 03:04:58;;;;;;;12.93;5.50;;;;;;;0.28;81.25;100481.95;128281;1108;22943;-68
2021/03/03 03:07:50;;;;;;;16.33;6.23;;;;;;;0.27;82.13;100486.47;128258;1108;24226;-68
2021/03/03 03:10:41;;;;;;;15.30;5.50;;;;;;;0.26;82.37;100487.47;128370;1108;22974;-68
2021/03/03 03:13:27;;;;;;;18.00;4.50;;;;;;;0.27;81.28;100494.51;128274;1108;22873;-68
2021/03/03 03:16:12;;;;;;;9.67;4.60;;;;;;;0.25;82.14;100499.20;128340;1108;22921;-68
2021/03/03 03:18:45;;;;;;;12.45;5.15;;;;;;;0.24;82.40;100496.68;128256;1109;22905;-68
2021/03/03 03:21:13;;;;;;;9.53;4.80;;;;;;;0.22;81.79;100504.88;128344;1109;22841;-68
2021/03/03 03:23:41;;;;;;;13.67;5.63;;;;;;;0.21;82.18;100497.01;128302;1109;23472;-68
2021/03/03 03:26:08;;;;;;;12.63;5.20;;;;;;;0.18;81.14;100500.86;128288;1109;24194;-68
2021/03/03 03:28:37;;;;;;;15.30;5.80;;;;;;;0.17;82.38;100504.53;128287;1108;22854;-69
2021/03/03 03:31:08;;;;;;;10.20;5.15;;;;;;;0.17;81.71;100504.53;128309;1109;24113;-69
2021/03/03 03:33:35;;;;;;;16.70;6.67;;;;;;;0.20;81.44;100496.17;128226;1108;23807;-69
2021/03/03 03:36:03;;;;;;;17.40;5.90;;;;;;;0.23;81.98;100506.56;128383;1108;22873;-70
2021/03/03 03:38:31;;;;;;;13.63;5.80;;;;;;;0.21;80.81;100497.01;128271;1108;22849;-69
2021/03/03 03:41:04;;;;;;;10.37;5.13;;;;;;;0.19;81.32;100496.33;128350;1108;22827;-70
2021/03/03 03:43:32;;;;;;;9.93;4.87;;;;;;;0.16;81.16;100497.50;128337;1107;22833;-69
2021/03/03 03:46:03;;;;;;;9.57;5.53;;;;;;;0.14;81.51;100496.86;128291;1109;22962;-67
2021/03/03 03:48:34;;;;;;;12.30;4.65;;;;;;;0.09;82.16;100485.79;126444;1108;24832;-67
2021/03/03 03:51:03;;;;;;;7.63;5.27;;;;;;;0.07;81.21;100487.80;125594;1109;23255;-66
2021/03/03 03:53:31;;;;;;;13.23;5.10;;;;;;;0.06;82.13;100493.31;125950;1107;26469;-65
2021/03/03 03:55:58;;;;;;;11.67;5.37;;;;;;;0.05;81.37;100500.52;125778;1109;23036;-66
2021/03/03 03:58:26;;;;;;;11.73;5.37;;;;;;;0.03;81.41;100501.67;126130;1108;25543;-66
2021/03/03 04:00:53;;;;;;;8.97;5.40;;;;;;;0.01;81.51;100499.16;125800;1109;26072;-66
2021/03/03 04:03:21;;;;;;;10.83;5.20;;;;;;;0.02;82.56;100505.36;125869;1109;23129;-65
2021/03/03 04:05:48;;;;;;;12.17;5.60;;;;;;;0.01;82.28;100509.88;126476;1109;22978;-68
2021/03/03 04:08:16;;;;;;;11.50;5.50;;;;;;;-0.01;82.31;100514.59;126697;1109;23153;-68
2021/03/03 04:10:43;;;;;;;10.43;4.67;;;;;;;-0.04;81.91;100507.72;126245;1109;23004;-68
2021/03/03 04:13:11;;;;;;;9.00;5.23;;;;;;;-0.04;82.32;100509.56;125685;1109;23188;-68
2021/03/03 04:15:39;;;;;;;14.23;5.73;;;;;;;-0.05;82.31;100507.87;125645;1107;23102;-68
2021/03/03 04:18:07;;;;;;;10.83;6.43;;;;;;;-0.07;82.04;100508.04;125624;1107;24672;-68
2021/03/03 04:20:35;;;;;;;13.93;6.37;;;;;;;-0.07;82.72;100520.59;125568;1107;23529;-68
2021/03/03 04:23:02;;;;;;;15.57;6.17;;;;;;;-0.12;82.18;100513.05;125300;1109;23050;-67
2021/03/03 04:25:30;;;;;;;12.80;6.13;;;;;;;-0.11;82.35;100508.53;125253;1109;23126;-68
2021/03/03 04:27:57;;;;;;;12.07;5.77;;;;;;;-0.08;82.69;100516.23;125657;1109;23773;-67
2021/03/03 04:30:25;;;;;;;16.33;6.30;;;;;;;-0.08;81.56;100525.11;125599;1107;23255;-66
2021/03/03 04:33:07;;;;;;;14.90;7.27;;;;;;;-0.09;81.77;100518.08;125232;1108;23042;-67
2021/03/03 04:35:41;;;;;;;16.83;8.07;;;;;;;-0.08;82.19;100526.95;125659;1108;23093;-67
2021/03/03 04:38:11;;;;;;;22.10;9.20;;;;;;;-0.08;81.98;100530.47;125635;1109;23350;-67
2021/03/03 04:40:39;;;;;;;54.27;23.83;;;;;;;-0.08;81.69;100526.95;125498;1108;23061;-67
2021/03/03 04:43:07;;;;;;;58.17;22.80;;;;;;;-0.13;81.71;100527.44;125619;1109;23108;-66
2021/03/03 04:45:34;;;;;;;29.43;12.83;;;;;;;-0.10;82.11;100528.95;125658;1109;26478;-66
2021/03/03 04:48:02;;;;;;;19.33;11.07;;;;;;;-0.12;81.80;100536.31;125588;1109;23096;-67
2021/03/03 04:50:30;;;;;;;19.90;10.33;;;;;;;-0.14;82.39;100544.50;125581;1109;23086;-67
2021/03/03 04:52:57;;;;;;;15.20;8.10;;;;;;;-0.13;82.18;100542.66;125538;1108;23061;-67
2021/03/03 04:55:27;;;;;;;14.77;8.57;;;;;;;-0.12;82.62;100550.54;125588;1107;23686;-66
2021/03/03 04:57:55;;;;;;;17.93;6.83;;;;;;;-0.10;81.69;100551.22;125394;1109;23112;-66
2021/03/03 05:00:22;;;;;;;11.57;6.40;;;;;;;-0.11;82.60;100556.73;125643;1109;23122;-66
2021/03/03 05:02:50;;;;;;;15.13;6.37;;;;;;;-0.07;81.77;100564.29;125564;1109;23652;-66
2021/03/03 05:05:17;;;;;;;14.60;6.90;;;;;;;-0.06;81.40;100565.13;125613;1109;23048;-66
2021/03/03 05:07:45;;;;;;;13.17;6.10;;;;;;;-0.09;81.67;100566.29;125559;1109;27488;-66
2021/03/03 05:10:13;;;;;;;13.37;6.20;;;;;;;-0.11;81.44;100564.77;125530;1108;23536;-65
2021/03/03 05:12:40;;;;;;;15.10;6.97;;;;;;;-0.09;82.18;100576.17;125575;1109;23229;-66
2021/03/03 05:15:09;;;;;;;10.13;6.23;;;;;;;-0.08;81.91;100580.52;125342;1109;23696;-66
2021/03/03 05:17:37;;;;;;;12.83;7.07;;;;;;;-0.06;82.82;100574.01;128263;1108;23511;-67
2021/03/03 05:20:06;;;;;;;11.03;6.70;;;;;;;-0.03;81.54;100578.20;128347;1108;23081;-68
2021/03/03 05:22:34;;;;;;;15.53;8.73;;;;;;;-0.03;82.27;100579.05;128263;1108;22901;-67
2021/03/03 05:25:01;;;;;;;15.23;9.13;;;;;;;-0.02;81.65;100579.88;128408;1108;23477;-68
2021/03/03 05:27:29;;;;;;;18.13;9.57;;;;;;;0.00;81.79;100585.92;128364;1108;22902;-67
2021/03/03 05:29:57;;;;;;;18.30;9.17;;;;;;;0.02;82.11;100593.77;128404;1108;22809;-68
2021/03/03 05:32:24;;;;;;;14.40;9.07;;;;;;;0.04;82.67;100597.13;128279;1109;23598;-68
2021/03/03 05:34:52;;;;;;;19.50;10.23;;;;;;;0.06;82.07;100597.80;128301;1108;24174;-67
2021/03/03 05:37:19;;;;;;;21.93;11.77;;;;;;;0.08;81.90;100607.36;128343;1108;22977;-67
2021/03/03 05:39:47;;;;;;;24.30;12.80;;;;;;;0.12;82.45;100611.39;128277;1108;22891;-67
2021/03/03 05:42:14;;;;;;;18.23;9.43;;;;;;;0.14;81.59;100611.23;128322;1108;22987;-67
2021/03/03 05:44:45;;;;;;;13.73;8.80;;;;;;;0.18;82.53;100612.56;128317;1109;22956;-67
2021/03/03 05:47:14;;;;;;;16.90;9.70;;;;;;;0.18;82.67;100616.08;128369;1108;23010;-68
2021/03/03 05:49:43;;;;;;;20.37;10.57;;;;;;;0.14;82.19;100613.91;128264;1108;22901;-67
2021/03/03 05:52:12;;;;;;;16.10;9.37;;;;;;;0.12;81.38;100614.08;128351;1109;22888;-67
2021/03/03 05:54:40;;;;;;;22.77;10.73;;;;;;;0.17;82.56;100611.72;128277;1108;22898;-67
2021/03/03 05:57:07;;;;;;;19.75;10.40;;;;;;;0.16;81.73;100612.72;128365;1109;22833;-67
2021/03/03 05:59:35;;;;;;;15.73;9.43;;;;;;;0.17;81.78;100619.77;128243;1108;23354;-67
2021/03/03 06:02:03;;;;;;;15.27;7.97;;;;;;;0.20;82.53;100618.59;128361;1108;22844;-68
2021/03/03 06:04:30;;;;;;;18.25;9.10;;;;;;;0.22;82.35;100622.80;128304;1108;23015;-67
2021/03/03 06:06:58;;;;;;;20.27;8.30;;;;;;;0.27;81.59;100623.16;128399;1108;22956;-67
2021/03/03 06:09:26;;;;;;;16.80;8.70;;;;;;;0.30;81.71;100628.16;128213;1109;23008;-67
2021/03/03 06:11:55;;;;;;;14.80;7.45;;;;;;;0.36;81.99;100629.36;128341;1108;22903;-70
2021/03/03 06:14:23;;;;;;;18.17;8.90;;;;;;;0.40;82.70;100628.03;128328;1109;22848;-69
2021/03/03 06:16:54;;;;;;;16.07;8.00;;;;;;;0.41;81.20;100629.71;128314;1109;22829;-68
2021/03/03 06:19:24;;;;;;;13.40;8.10;;;;;;;0.47;82.30;100636.23;128250;1109;23525;-69
2021/03/03 06:21:51;;;;;;;15.80;8.43;;;;;;;0.51;81.35;100624.19;128306;1109;22942;-68
2021/03/03 06:24:19;;;;;;;19.25;10.90;;;;;;;0.57;81.83;100623.53;128288;1108;23014;-70
2021/03/03 06:26:56;;;;;;;17.30;9.50;;;;;;;0.62;82.03;100622.01;125806;1108;23045;-64
2021/03/03 06:29:24;;;;;;;22.05;10.13;;;;;;;0.70;81.50;100615.83;128285;1109;23384;-64
2021/03/03 06:31:51;;;;;;;16.20;8.70;;;;;;;0.73;80.89;100618.15;128281;1108;22930;-64
2021/03/03 06:34:48;;;;;;;18.27;9.75;;;;;;;0.78;81.42;100617.66;128274;1108;25163;-62
2021/03/03 06:37:15;;;;;;;13.35;8.50;;;;;;;0.82;81.37;100627.89;128350;1108;23390;-63
2021/03/03 06:39:42;;;;;;;18.80;10.50;;;;;;;0.84;81.43;100625.05;128318;1108;22851;-63
2021/03/03 06:42:11;;;;;;;16.40;9.55;;;;;;;0.86;80.55;100631.92;128226;1108;23017;-63
2021/03/03 06:44:48;;;;;;;14.50;7.53;;;;;;;0.90;80.95;100627.88;128337;1109;23027;-63
2021/03/03 06:47:16;;;;;;;11.88;7.05;;;;;;;0.95;81.06;100628.22;128247;1109;23011;-63
2021/03/03 06:49:48;;;;;;;10.97;6.87;;;;;;;0.97;80.25;100626.21;128349;1109;22894;-63
2021/03/03 06:52:15;;;;;;;16.35;7.90;;;;;;;0.99;79.49;100621.52;128195;1109;23199;-63
2021/03/03 06:54:43;;;;;;;18.90;8.10;;;;;;;1.01;79.93;100618.67;128373;1109;22913;-63
2021/03/03 06:57:14;;;;;;;12.97;6.97;;;;;;;1.04;80.50;100619.14;128198;1108;23569;-66
2021/03/03 06:59:44;;;;;;;21.53;9.97;;;;;;;1.14;79.92;100628.88;128344;1109;22851;-66
2021/03/03 07:02:13;;;;;;;20.50;8.55;;;;;;;1.20;79.37;100629.02;128253;1108;23134;-66
2021/03/03 07:04:44;;;;;;;15.25;7.00;;;;;;;1.27;79.85;100619.29;128297;1108;23699;-66
2021/03/03 07:07:15;;;;;;;16.55;7.55;;;;;;;1.33;79.65;100617.75;128223;1108;23810;-66
2021/03/03 07:09:47;;;;;;;17.05;6.35;;;;;;;1.38;79.97;100620.77;128360;1107;22858;-66
2021/03/03 07:12:19;;;;;;;15.40;7.90;;;;;;;1.43;78.45;100629.16;128193;1109;22889;-66
2021/03/03 07:15:03;;;;;;;10.37;5.50;;;;;;;1.46;78.37;100634.16;128307;1109;23017;-66
2021/03/03 07:17:34;;;;;;;15.45;10.70;;;;;;;1.51;78.43;100630.97;128229;1109;23690;-67
2021/03/03 07:20:16;;;;;;;13.60;8.30;;;;;;;1.57;78.09;100625.76;128318;1108;22912;-68
2021/03/03 07:22:47;;;;;;;12.63;7.33;;;;;;;1.63;78.42;100630.42;128287;1108;23395;-68
2021/03/03 07:25:16;;;;;;;14.20;7.75;;;;;;;1.69;78.25;100635.11;128343;1109;23043;-63
2021/03/03 07:27:44;;;;;;;15.47;8.50;;;;;;;1.72;78.19;100628.56;128212;1108;23314;-63
2021/03/03 07:30:16;;;;;;;16.53;8.77;;;;;;;1.72;77.55;100634.77;128366;1108;23649;-63
2021/03/03 07:32:44;;;;;;;17.10;8.50;;;;;;;1.73;77.06;100632.92;128268;1108;22929;-63
2021/03/03 07:35:29;;;;;;;16.30;7.67;;;;;;;1.77;77.82;100631.55;128323;1109;22878;-63
2021/03/03 07:37:56;;;;;;;22.40;10.07;;;;;;;1.83;77.60;100628.17;128280;1108;23546;-64
2021/03/03 07:40:28;;;;;;;32.50;12.70;;;;;;;1.90;77.69;100631.83;128362;1108;22996;-64
2021/03/03 07:42:57;;;;;;;29.00;11.00;;;;;;;1.99;77.25;100629.95;128247;1108;23175;-63
2021/03/03 07:45:41;;;;;;;13.70;7.90;;;;;;;2.07;77.15;100624.53;128273;1109;24851;-63
2021/03/03 07:48:10;;;;;;;13.07;7.43;;;;;;;2.12;76.26;100633.75;128193;1108;22888;-63
2021/03/03 07:50:39;;;;;;;13.47;7.40;;;;;;;2.14;76.64;100633.58;128337;1108;22962;-63
2021/03/03 07:53:08;;;;;;;12.80;7.27;;;;;;;2.17;76.29;100643.95;128232;1108;22929;-63
2021/03/03 07:55:36;;;;;;;15.53;8.27;;;;;;;2.17;76.10;100637.73;128341;1108;23366;-63
2021/03/03 07:58:05;;;;;;;18.47;8.60;;;;;;;2.19;76.08;100639.24;128154;1109;22883;-63
2021/03/03 08:00:34;;;;;;;21.80;9.63;;;;;;;2.20;76.27;100626.64;128308;1108;22850;-62
2021/03/03 08:03:04;;;;;;;15.53;7.63;;;;;;;2.23;75.65;100629.81;128242;1108;22994;-63
2021/03/03 08:05:51;;;;;;;12.17;6.50;;;;;;;2.27;75.23;100624.93;127235;1108;26450;-65
2021/03/03 08:08:33;;;;;;;15.77;8.40;;;;;;;2.29;75.19;100630.97;124129;1109;23215;-66
2021/03/03 08:11:01;;;;;;;12.03;7.57;;;;;;;2.30;74.25;100630.80;128326;1109;22960;-67
2021/03/03 08:13:39;;;;;;;12.67;6.57;;;;;;;2.28;75.12;100632.83;128206;1109;22835;-67
2021/03/03 08:16:07;;;;;;;18.20;9.08;;;;;;;2.31;75.22;100632.45;128345;1109;22904;-67
2021/03/03 08:18:35;;;;;;;17.53;10.00;;;;;;;2.37;75.20;100629.06;128320;1109;23475;-67
2021/03/03 08:21:07;;;;;;;23.70;10.30;;;;;;;2.45;74.81;100630.88;128294;1109;22982;-67
2021/03/03 08:23:35;;;;;;;12.80;6.95;;;;;;;2.54;74.77;100631.64;128339;1108;22863;-67
2021/03/03 08:26:06;;;;;;;18.30;8.33;;;;;;;2.62;75.05;100624.34;128254;1108;23983;-67
2021/03/03 08:28:35;;;;;;;14.33;8.00;;;;;;;2.72;74.63;100624.12;128343;1108;22975;-67
2021/03/03 08:31:04;;;;;;;20.10;9.03;;;;;;;2.82;75.01;100624.70;128246;1109;22847;-67
2021/03/03 08:33:38;;;;;;;11.55;6.85;;;;;;;2.91;74.44;100622.77;128347;1108;22866;-67
2021/03/03 08:36:21;;;;;;;19.40;9.30;;;;;;;2.99;74.17;100623.55;128189;1109;25506;-67
2021/03/03 08:38:55;;;;;;;17.50;8.00;;;;;;;3.07;73.65;100622.63;128286;1108;23011;-67
2021/03/03 08:41:27;;;;;;;14.95;7.30;;;;;;;3.12;72.82;100615.69;128214;1108;22874;-67
2021/03/03 08:44:14;;;;;;;14.65;8.15;;;;;;;3.16;72.89;100618.86;128401;1107;22947;-67
2021/03/03 08:46:44;;;;;;;14.75;8.25;;;;;;;3.22;73.01;100619.95;128227;1107;22919;-67
2021/03/03 08:49:12;;;;;;;14.43;8.63;;;;;;;3.28;73.16;100614.69;128312;1108;22911;-67
2021/03/03 08:51:40;;;;;;;16.65;8.25;;;;;;;3.35;73.48;100614.77;128203;1109;22979;-67
2021/03/03 08:54:23;;;;;;;19.80;9.70;;;;;;;3.40;73.66;100620.45;128316;1108;23049;-67
2021/03/03 08:56:53;;;;;;;22.50;10.45;;;;;;;3.48;73.41;100606.87;128197;1109;22995;-67
2021/03/03 08:59:36;;;;;;;18.40;9.03;;;;;;;3.56;72.91;100617.59;128265;1108;24844;-67
2021/03/03 09:02:11;;;;;;;17.55;9.35;;;;;;;3.64;72.98;100614.78;128229;1108;22850;-67
2021/03/03 09:04:42;;;;;;;18.30;9.00;;;;;;;3.70;72.90;100614.05;128338;1109;22993;-67
2021/03/03 09:07:14;;;;;;;13.00;6.95;;;;;;;3.75;72.04;100619.70;128176;1109;22859;-67
2021/03/03 09:09:45;;;;;;;19.70;8.90;;;;;;;3.81;72.44;100621.66;128335;1108;23626;-72
2021/03/03 09:12:14;;;;;;;14.03;8.73;;;;;;;3.87;72.51;100623.62;128282;1108;22918;-72
2021/03/03 09:14:42;;;;;;;21.03;9.77;;;;;;;3.93;72.27;100616.63;128291;1107;22857;-72
2021/03/03 09:17:11;;;;;;;17.60;9.30;;;;;;;3.98;71.97;100627.69;125864;1108;24664;-71
2021/03/03 09:19:43;;;;;;;16.60;8.63;;;;;;;4.02;71.22;100636.25;128358;1109;22846;-71
2021/03/03 09:22:15;;;;;;;13.63;7.63;;;;;;;4.02;70.61;100628.16;128241;1108;22956;-71
2021/03/03 09:24:53;;;;;;;17.80;9.20;;;;;;;4.00;70.32;100631.03;128383;1108;22875;-71
2021/03/03 09:27:22;;;;;;;10.75;5.95;;;;;;;4.04;70.16;100635.00;128326;1108;22870;-71
2021/03/03 09:29:50;;;;;;;12.83;6.03;;;;;;;4.08;70.57;100630.91;128345;1108;22905;-71
2021/03/03 09:32:22;;;;;;;16.67;7.83;;;;;;;4.11;70.67;100624.31;128331;1108;22883;-71
2021/03/03 09:34:56;;;;;;;9.37;6.30;;;;;;;4.16;69.36;100632.69;128336;1109;22891;-72
2021/03/03 09:37:24;;;;;;;10.75;5.80;;;;;;;4.17;68.75;100626.27;126322;1109;23109;-71
2021/03/03 09:39:58;;;;;;;13.60;6.50;;;;;;;4.16;68.66;100624.59;125917;1109;23050;-71
2021/03/03 09:42:26;;;;;;;11.10;5.50;;;;;;;4.14;68.90;100624.78;128288;1108;24834;-71
2021/03/03 09:44:56;;;;;;;10.73;5.97;;;;;;;4.14;68.73;100623.94;128334;1109;24029;-70
2021/03/03 09:47:28;;;;;;;11.75;5.70;;;;;;;4.15;68.00;100621.06;128188;1108;23084;-62
2021/03/03 09:50:07;;;;;;;9.77;4.63;;;;;;;4.17;68.25;100619.02;128299;1108;23010;-65
2021/03/03 09:52:45;;;;;;;11.03;5.43;;;;;;;4.21;68.56;100622.14;128295;1109;24966;-64
2021/03/03 09:55:14;;;;;;;13.83;7.37;;;;;;;4.26;69.19;100620.56;128317;1108;22857;-64
2021/03/03 09:57:42;;;;;;;9.45;5.10;;;;;;;4.32;67.94;100618.14;128235;1109;23013;-65
2021/03/03 10:00:15;;;;;;;8.15;4.40;;;;;;;4.34;67.56;100608.80;125927;1108;24145;-65
2021/03/03 10:03:01;;;;;;;13.10;5.75;;;;;;;4.37;68.42;100611.13;125992;1109;23186;-65
2021/03/03 10:05:31;;;;;;;9.57;4.27;;;;;;;4.43;67.86;100607.67;125999;1109;23823;-65
2021/03/03 10:08:02;;;;;;;14.50;6.25;;;;;;;4.48;68.28;100604.38;126322;1109;23996;-66
2021/03/03 10:10:32;;;;;;;11.40;6.20;;;;;;;4.51;68.50;100602.14;126840;1108;23166;-65
2021/03/03 10:12:59;;;;;;;10.40;6.50;;;;;;;4.55;68.30;100599.91;126344;1108;23158;-65
2021/03/03 10:15:36;;;;;;;10.87;6.07;;;;;;;4.57;68.35;100593.29;126241;1109;23219;-65
2021/03/03 10:18:08;;;;;;;12.90;7.28;;;;;;;4.61;69.00;100597.28;126579;1107;23039;-65
2021/03/03 10:20:39;;;;;;;19.55;7.75;;;;;;;4.65;68.71;100595.01;125696;1109;25692;-64
2021/03/03 10:23:15;;;;;;;11.30;6.20;;;;;;;4.69;68.21;100590.91;124454;1108;23486;-63
2021/03/03 10:25:48;;;;;;;14.13;7.13;;;;;;;4.73;68.19;100585.96;127266;1109;23231;-73
2021/03/03 10:28:18;;;;;;;23.45;7.85;;;;;;;4.76;68.49;100586.38;128360;1108;22859;-74
2021/03/03 10:30:56;;;;;;;13.90;7.33;;;;;;;4.80;68.38;100587.67;128316;1107;22823;-73
2021/03/03 10:33:33;;;;;;;21.07;8.10;;;;;;;4.85;67.57;100587.94;128390;1108;23612;-72
2021/03/03 10:36:05;;;;;;;16.93;6.10;;;;;;;4.89;66.84;100586.52;128274;1109;23498;-72
2021/03/03 10:38:34;;;;;;;15.00;7.00;;;;;;;4.94;66.65;100578.66;128373;1108;22837;-72
2021/03/03 10:41:03;;;;;;;10.50;4.70;;;;;;;4.99;66.23;100578.08;128221;1108;23036;-70
2021/03/03 10:43:30;;;;;;;8.45;4.20;;;;;;;5.02;65.57;100584.95;128326;1108;22949;-71
2021/03/03 10:46:11;;;;;;;9.40;4.95;;;;;;;5.03;65.65;100581.23;126301;1109;23115;-72
2021/03/03 10:48:39;;;;;;;6.07;3.57;;;;;;;5.02;65.37;100584.95;124456;1108;23126;-72
2021/03/03 10:51:07;;;;;;;7.90;3.50;;;;;;;5.01;65.41;100583.28;128252;1108;22871;-70
2021/03/03 10:53:50;;;;;;;8.95;4.85;;;;;;;5.02;65.56;100574.16;128361;1108;22966;-72
2021/03/03 10:56:28;;;;;;;14.10;6.80;;;;;;;5.02;66.27;100569.59;126438;1109;23031;-69
2021/03/03 10:59:06;;;;;;;9.25;5.90;;;;;;;5.03;66.49;100573.13;124382;1107;23059;-71
2021/03/03 11:01:41;;;;;;;14.55;7.30;;;;;;;5.05;66.14;100569.17;128205;1109;24790;-71
2021/03/03 11:04:09;;;;;;;12.20;7.15;;;;;;;5.08;66.48;100563.38;128083;1108;22807;-71
2021/03/03 11:06:37;;;;;;;9.90;6.40;;;;;;;5.11;66.62;100562.16;126749;1107;23118;-71
2021/03/03 11:09:07;;;;;;;9.65;6.30;;;;;;;5.12;66.98;100559.27;124592;1108;23047;-70
2021/03/03 11:11:48;;;;;;;10.80;5.95;;;;;;;5.16;66.52;100559.71;128278;1109;22880;-71
2021/03/03 11:14:16;;;;;;;7.40;5.05;;;;;;;5.17;66.04;100550.58;128356;1109;22997;-71
2021/03/03 11:16:48;;;;;;;10.75;6.60;;;;;;;5.19;66.37;100549.35;128312;1108;22823;-70
2021/03/03 11:19:15;;;;;;;13.23;5.90;;;;;;;5.20;66.37;100555.56;128374;1108;22917;-70
2021/03/03 11:21:43;;;;;;;11.75;5.55;;;;;;;5.21;66.35;100557.23;128250;1108;22895;-69
2021/03/03 11:24:11;;;;;;;9.20;5.90;;;;;;;5.23;65.96;100553.30;128345;1108;22893;-70
2021/03/03 11:26:42;;;;;;;12.77;5.87;;;;;;;5.25;66.00;100547.70;125857;1109;27333;-69
2021/03/03 11:29:11;;;;;;;9.65;4.15;;;;;;;5.27;65.65;100553.75;128323;1109;23887;-69
2021/03/03 11:31:39;;;;;;;6.93;3.33;;;;;;;5.27;64.52;100551.05;128251;1108;22958;-69
2021/03/03 11:34:07;;;;;;;9.15;4.10;;;;;;;5.24;63.81;100546.88;128327;1108;22902;-70